sensor_id;sensor_type;location;lat;lon;timestamp;P1;durP1;ratioP1;P2;durP2;ratioP2
40659;SDS011;26753;45.544;9.232;2023-12-20T00:00:19;64.50;;;36.38;;
40659;SDS011;26753;45.544;9.232;2023-12-20T00:02:45;58.13;;;35.78;;
40659;SDS011;26753;45.544;9.232;2023-12-20T00:05:12;63.08;;;36.40;;
40659;SDS011;26753;45.544;9.232;2023-12-20T00:07:39;68.00;;;36.17;;
40659;SDS011;26753;45.544;9.232;2023-12-20T00:10:05;67.68;;;36.78;;
40659;SDS011;26753;45.544;9.232;2023-12-20T00:12:32;62.55;;;35.40;;
40659;SDS011;26753;45.544;9.232;2023-12-20T00:14:58;63.08;;;35.97;;
40659;SDS011;26753;45.544;9.232;2023-12-20T00:17:23;63.05;;;35.15;;
40659;SDS011;26753;45.544;9.232;2023-12-20T00:19:49;61.30;;;34.90;;
40659;SDS011;26753;45.544;9.232;2023-12-20T00:22:15;63.70;;;33.97;;
40659;SDS011;26753;45.544;9.232;2023-12-20T00:24:41;60.38;;;34.85;;
40659;SDS011;26753;45.544;9.232;2023-12-20T00:27:07;62.70;;;33.53;;
40659;SDS011;26753;45.544;9.232;2023-12-20T00:29:33;56.72;;;33.30;;
40659;SDS011;26753;45.544;9.232;2023-12-20T00:32:01;55.70;;;32.45;;
40659;SDS011;26753;45.544;9.232;2023-12-20T00:34:27;56.63;;;32.45;;
40659;SDS011;26753;45.544;9.232;2023-12-20T00:36:53;58.63;;;33.47;;
40659;SDS011;26753;45.544;9.232;2023-12-20T00:39:20;56.42;;;33.00;;
40659;SDS011;26753;45.544;9.232;2023-12-20T00:41:46;56.83;;;33.30;;
40659;SDS011;26753;45.544;9.232;2023-12-20T00:44:11;57.25;;;32.58;;
40659;SDS011;26753;45.544;9.232;2023-12-20T00:46:38;62.08;;;32.83;;
40659;SDS011;26753;45.544;9.232;2023-12-20T00:49:03;55.53;;;32.55;;
40659;SDS011;26753;45.544;9.232;2023-12-20T00:51:29;57.15;;;32.53;;
40659;SDS011;26753;45.544;9.232;2023-12-20T00:53:55;64.13;;;32.65;;
40659;SDS011;26753;45.544;9.232;2023-12-20T00:56:21;55.80;;;31.20;;
40659;SDS011;26753;45.544;9.232;2023-12-20T00:58:50;57.45;;;31.30;;
40659;SDS011;26753;45.544;9.232;2023-12-20T01:01:16;54.05;;;30.27;;
40659;SDS011;26753;45.544;9.232;2023-12-20T01:03:42;51.67;;;30.00;;
40659;SDS011;26753;45.544;9.232;2023-12-20T01:06:09;54.20;;;29.88;;
40659;SDS011;26753;45.544;9.232;2023-12-20T01:08:35;54.22;;;30.60;;
40659;SDS011;26753;45.544;9.232;2023-12-20T01:11:03;52.88;;;29.85;;
40659;SDS011;26753;45.544;9.232;2023-12-20T01:13:30;53.47;;;30.40;;
40659;SDS011;26753;45.544;9.232;2023-12-20T01:15:56;57.42;;;30.85;;
40659;SDS011;26753;45.544;9.232;2023-12-20T01:18:22;53.83;;;29.30;;
40659;SDS011;26753;45.544;9.232;2023-12-20T01:20:48;51.05;;;28.77;;
40659;SDS011;26753;45.544;9.232;2023-12-20T01:25:54;48.63;;;29.40;;
40659;SDS011;26753;45.544;9.232;2023-12-20T01:28:20;58.03;;;29.92;;
40659;SDS011;26753;45.544;9.232;2023-12-20T01:30:49;50.85;;;29.13;;
40659;SDS011;26753;45.544;9.232;2023-12-20T01:33:15;54.47;;;29.00;;
40659;SDS011;26753;45.544;9.232;2023-12-20T01:35:41;50.75;;;27.63;;
40659;SDS011;26753;45.544;9.232;2023-12-20T01:38:07;47.13;;;26.80;;
40659;SDS011;26753;45.544;9.232;2023-12-20T01:40:40;49.67;;;26.92;;
40659;SDS011;26753;45.544;9.232;2023-12-20T01:43:09;48.97;;;26.17;;
40659;SDS011;26753;45.544;9.232;2023-12-20T01:45:36;46.03;;;26.40;;
40659;SDS011;26753;45.544;9.232;2023-12-20T01:48:02;49.85;;;26.15;;
40659;SDS011;26753;45.544;9.232;2023-12-20T01:50:32;49.13;;;25.63;;
40659;SDS011;26753;45.544;9.232;2023-12-20T01:53:02;47.13;;;25.95;;
40659;SDS011;26753;45.544;9.232;2023-12-20T01:55:30;44.15;;;26.15;;
40659;SDS011;26753;45.544;9.232;2023-12-20T01:57:59;45.90;;;27.02;;
40659;SDS011;26753;45.544;9.232;2023-12-20T02:00:26;55.30;;;27.33;;
40659;SDS011;26753;45.544;9.232;2023-12-20T02:02:52;49.78;;;26.63;;
40659;SDS011;26753;45.544;9.232;2023-12-20T02:05:20;47.08;;;26.25;;
40659;SDS011;26753;45.544;9.232;2023-12-20T02:07:47;48.72;;;26.83;;
40659;SDS011;26753;45.544;9.232;2023-12-20T02:10:13;50.78;;;27.48;;
40659;SDS011;26753;45.544;9.232;2023-12-20T02:12:39;50.00;;;26.65;;
40659;SDS011;26753;45.544;9.232;2023-12-20T02:15:05;49.90;;;27.10;;
40659;SDS011;26753;45.544;9.232;2023-12-20T02:17:32;52.08;;;27.63;;
40659;SDS011;26753;45.544;9.232;2023-12-20T02:19:59;48.25;;;27.30;;
40659;SDS011;26753;45.544;9.232;2023-12-20T02:22:25;47.95;;;26.75;;
40659;SDS011;26753;45.544;9.232;2023-12-20T02:24:51;45.92;;;26.92;;
40659;SDS011;26753;45.544;9.232;2023-12-20T02:27:17;43.90;;;26.42;;
40659;SDS011;26753;45.544;9.232;2023-12-20T02:29:44;50.97;;;25.98;;
40659;SDS011;26753;45.544;9.232;2023-12-20T02:32:11;52.78;;;26.98;;
40659;SDS011;26753;45.544;9.232;2023-12-20T02:34:37;49.30;;;26.75;;
40659;SDS011;26753;45.544;9.232;2023-12-20T02:37:03;47.38;;;25.50;;
40659;SDS011;26753;45.544;9.232;2023-12-20T02:39:30;48.10;;;26.75;;
40659;SDS011;26753;45.544;9.232;2023-12-20T02:41:56;48.25;;;26.63;;
40659;SDS011;26753;45.544;9.232;2023-12-20T02:44:22;48.28;;;27.50;;
40659;SDS011;26753;45.544;9.232;2023-12-20T02:46:48;43.38;;;26.95;;
40659;SDS011;26753;45.544;9.232;2023-12-20T02:49:14;47.95;;;25.33;;
40659;SDS011;26753;45.544;9.232;2023-12-20T02:51:40;44.58;;;27.05;;
40659;SDS011;26753;45.544;9.232;2023-12-20T02:54:07;48.53;;;27.48;;
40659;SDS011;26753;45.544;9.232;2023-12-20T02:56:33;49.20;;;27.27;;
40659;SDS011;26753;45.544;9.232;2023-12-20T02:58:59;52.22;;;28.38;;
40659;SDS011;26753;45.544;9.232;2023-12-20T03:01:26;53.53;;;30.83;;
40659;SDS011;26753;45.544;9.232;2023-12-20T03:03:52;51.67;;;30.30;;
40659;SDS011;26753;45.544;9.232;2023-12-20T03:06:18;51.95;;;30.40;;
40659;SDS011;26753;45.544;9.232;2023-12-20T03:08:44;50.08;;;30.48;;
40659;SDS011;26753;45.544;9.232;2023-12-20T03:11:11;51.88;;;30.40;;
40659;SDS011;26753;45.544;9.232;2023-12-20T03:13:37;52.97;;;30.67;;
40659;SDS011;26753;45.544;9.232;2023-12-20T03:16:09;52.20;;;30.05;;
40659;SDS011;26753;45.544;9.232;2023-12-20T03:18:35;56.03;;;30.95;;
40659;SDS011;26753;45.544;9.232;2023-12-20T03:21:01;55.38;;;30.60;;
40659;SDS011;26753;45.544;9.232;2023-12-20T03:23:27;53.25;;;31.23;;
40659;SDS011;26753;45.544;9.232;2023-12-20T03:25:55;54.42;;;30.20;;
40659;SDS011;26753;45.544;9.232;2023-12-20T03:28:21;48.00;;;28.98;;
40659;SDS011;26753;45.544;9.232;2023-12-20T03:30:48;49.50;;;29.40;;
40659;SDS011;26753;45.544;9.232;2023-12-20T03:33:14;46.65;;;29.02;;
40659;SDS011;26753;45.544;9.232;2023-12-20T03:35:40;50.88;;;29.17;;
40659;SDS011;26753;45.544;9.232;2023-12-20T03:38:07;51.33;;;29.45;;
40659;SDS011;26753;45.544;9.232;2023-12-20T03:40:33;54.47;;;30.02;;
40659;SDS011;26753;45.544;9.232;2023-12-20T03:42:58;53.67;;;29.70;;
40659;SDS011;26753;45.544;9.232;2023-12-20T03:45:25;50.65;;;29.95;;
40659;SDS011;26753;45.544;9.232;2023-12-20T03:47:51;50.55;;;29.98;;
40659;SDS011;26753;45.544;9.232;2023-12-20T03:50:24;48.28;;;29.13;;
40659;SDS011;26753;45.544;9.232;2023-12-20T03:52:50;50.10;;;29.38;;
40659;SDS011;26753;45.544;9.232;2023-12-20T03:55:16;52.85;;;30.30;;
40659;SDS011;26753;45.544;9.232;2023-12-20T03:57:42;50.85;;;29.45;;
40659;SDS011;26753;45.544;9.232;2023-12-20T04:00:09;50.72;;;29.30;;
40659;SDS011;26753;45.544;9.232;2023-12-20T04:02:38;52.05;;;29.73;;
40659;SDS011;26753;45.544;9.232;2023-12-20T04:05:05;50.22;;;29.50;;
40659;SDS011;26753;45.544;9.232;2023-12-20T04:07:31;48.90;;;29.40;;
40659;SDS011;26753;45.544;9.232;2023-12-20T04:09:57;47.92;;;28.58;;
40659;SDS011;26753;45.544;9.232;2023-12-20T04:12:24;49.13;;;28.88;;
40659;SDS011;26753;45.544;9.232;2023-12-20T04:14:51;51.28;;;28.75;;
40659;SDS011;26753;45.544;9.232;2023-12-20T04:17:17;48.03;;;28.77;;
40659;SDS011;26753;45.544;9.232;2023-12-20T04:19:44;50.22;;;29.05;;
40659;SDS011;26753;45.544;9.232;2023-12-20T04:22:10;50.03;;;28.60;;
40659;SDS011;26753;45.544;9.232;2023-12-20T04:24:36;48.00;;;27.90;;
40659;SDS011;26753;45.544;9.232;2023-12-20T04:27:02;52.75;;;28.02;;
40659;SDS011;26753;45.544;9.232;2023-12-20T04:29:28;52.28;;;26.95;;
40659;SDS011;26753;45.544;9.232;2023-12-20T04:31:54;43.05;;;25.42;;
40659;SDS011;26753;45.544;9.232;2023-12-20T04:34:24;46.85;;;25.38;;
40659;SDS011;26753;45.544;9.232;2023-12-20T04:36:50;45.35;;;24.90;;
40659;SDS011;26753;45.544;9.232;2023-12-20T04:39:16;42.33;;;24.48;;
40659;SDS011;26753;45.544;9.232;2023-12-20T04:41:42;44.88;;;25.02;;
40659;SDS011;26753;45.544;9.232;2023-12-20T04:44:08;47.20;;;24.38;;
40659;SDS011;26753;45.544;9.232;2023-12-20T04:46:34;40.55;;;24.15;;
40659;SDS011;26753;45.544;9.232;2023-12-20T04:49:00;44.20;;;23.00;;
40659;SDS011;26753;45.544;9.232;2023-12-20T04:51:27;44.90;;;23.77;;
40659;SDS011;26753;45.544;9.232;2023-12-20T04:53:53;44.80;;;24.02;;
40659;SDS011;26753;45.544;9.232;2023-12-20T04:56:28;40.10;;;23.63;;
40659;SDS011;26753;45.544;9.232;2023-12-20T04:58:54;44.42;;;24.25;;
40659;SDS011;26753;45.544;9.232;2023-12-20T05:01:20;41.13;;;23.38;;
40659;SDS011;26753;45.544;9.232;2023-12-20T05:03:46;41.88;;;24.25;;
40659;SDS011;26753;45.544;9.232;2023-12-20T05:06:12;41.58;;;23.17;;
40659;SDS011;26753;45.544;9.232;2023-12-20T05:08:39;40.75;;;22.88;;
40659;SDS011;26753;45.544;9.232;2023-12-20T05:11:06;42.28;;;22.13;;
40659;SDS011;26753;45.544;9.232;2023-12-20T05:13:32;42.47;;;21.95;;
40659;SDS011;26753;45.544;9.232;2023-12-20T05:15:58;46.22;;;22.00;;
40659;SDS011;26753;45.544;9.232;2023-12-20T05:18:24;39.53;;;21.05;;
40659;SDS011;26753;45.544;9.232;2023-12-20T05:20:50;39.00;;;20.92;;
40659;SDS011;26753;45.544;9.232;2023-12-20T05:23:17;46.47;;;21.73;;
40659;SDS011;26753;45.544;9.232;2023-12-20T05:25:43;42.05;;;22.67;;
40659;SDS011;26753;45.544;9.232;2023-12-20T05:28:09;43.65;;;22.90;;
40659;SDS011;26753;45.544;9.232;2023-12-20T05:30:35;37.17;;;21.90;;
40659;SDS011;26753;45.544;9.232;2023-12-20T05:33:01;41.42;;;23.20;;
40659;SDS011;26753;45.544;9.232;2023-12-20T05:35:27;38.67;;;22.48;;
40659;SDS011;26753;45.544;9.232;2023-12-20T05:37:54;44.22;;;22.95;;
40659;SDS011;26753;45.544;9.232;2023-12-20T05:42:59;41.35;;;20.92;;
40659;SDS011;26753;45.544;9.232;2023-12-20T05:45:25;43.88;;;22.85;;
40659;SDS011;26753;45.544;9.232;2023-12-20T05:47:51;37.67;;;21.85;;
40659;SDS011;26753;45.544;9.232;2023-12-20T05:50:17;42.58;;;22.77;;
40659;SDS011;26753;45.544;9.232;2023-12-20T05:52:43;39.00;;;22.42;;
40659;SDS011;26753;45.544;9.232;2023-12-20T05:55:10;37.28;;;21.85;;
40659;SDS011;26753;45.544;9.232;2023-12-20T05:57:35;37.63;;;20.63;;
40659;SDS011;26753;45.544;9.232;2023-12-20T06:00:02;43.40;;;21.85;;
40659;SDS011;26753;45.544;9.232;2023-12-20T06:02:28;39.55;;;21.90;;
40659;SDS011;26753;45.544;9.232;2023-12-20T06:04:54;44.78;;;22.60;;
40659;SDS011;26753;45.544;9.232;2023-12-20T06:07:23;45.25;;;23.35;;
40659;SDS011;26753;45.544;9.232;2023-12-20T06:09:49;50.40;;;23.02;;
40659;SDS011;26753;45.544;9.232;2023-12-20T06:12:15;40.58;;;22.83;;
40659;SDS011;26753;45.544;9.232;2023-12-20T06:14:42;35.45;;;22.10;;
40659;SDS011;26753;45.544;9.232;2023-12-20T06:17:08;42.22;;;22.23;;
40659;SDS011;26753;45.544;9.232;2023-12-20T06:19:34;45.08;;;23.10;;
40659;SDS011;26753;45.544;9.232;2023-12-20T06:22:00;49.25;;;22.33;;
40659;SDS011;26753;45.544;9.232;2023-12-20T06:24:26;43.97;;;21.95;;
40659;SDS011;26753;45.544;9.232;2023-12-20T06:26:53;48.70;;;23.60;;
40659;SDS011;26753;45.544;9.232;2023-12-20T06:29:20;46.00;;;23.58;;
40659;SDS011;26753;45.544;9.232;2023-12-20T06:31:46;42.72;;;22.08;;
40659;SDS011;26753;45.544;9.232;2023-12-20T06:34:12;43.13;;;22.20;;
40659;SDS011;26753;45.544;9.232;2023-12-20T06:36:38;39.83;;;22.40;;
40659;SDS011;26753;45.544;9.232;2023-12-20T06:39:04;40.63;;;22.13;;
40659;SDS011;26753;45.544;9.232;2023-12-20T06:41:30;45.95;;;22.17;;
40659;SDS011;26753;45.544;9.232;2023-12-20T06:43:56;47.75;;;22.63;;
40659;SDS011;26753;45.544;9.232;2023-12-20T06:46:22;41.30;;;22.38;;
40659;SDS011;26753;45.544;9.232;2023-12-20T06:48:48;45.38;;;21.15;;
40659;SDS011;26753;45.544;9.232;2023-12-20T06:51:14;42.50;;;21.50;;
40659;SDS011;26753;45.544;9.232;2023-12-20T06:53:40;38.72;;;21.83;;
40659;SDS011;26753;45.544;9.232;2023-12-20T06:56:07;41.28;;;21.52;;
40659;SDS011;26753;45.544;9.232;2023-12-20T06:58:33;45.50;;;24.45;;
40659;SDS011;26753;45.544;9.232;2023-12-20T07:01:00;39.97;;;22.42;;
40659;SDS011;26753;45.544;9.232;2023-12-20T07:03:26;41.47;;;23.13;;
40659;SDS011;26753;45.544;9.232;2023-12-20T07:05:52;42.70;;;23.00;;
40659;SDS011;26753;45.544;9.232;2023-12-20T07:08:17;45.65;;;22.85;;
40659;SDS011;26753;45.544;9.232;2023-12-20T07:10:44;39.20;;;22.60;;
40659;SDS011;26753;45.544;9.232;2023-12-20T07:13:10;43.17;;;22.40;;
40659;SDS011;26753;45.544;9.232;2023-12-20T07:15:36;44.45;;;22.52;;
40659;SDS011;26753;45.544;9.232;2023-12-20T07:18:02;45.67;;;23.13;;
40659;SDS011;26753;45.544;9.232;2023-12-20T07:20:28;47.10;;;22.88;;
40659;SDS011;26753;45.544;9.232;2023-12-20T07:22:53;49.03;;;23.40;;
40659;SDS011;26753;45.544;9.232;2023-12-20T07:25:19;40.58;;;22.60;;
40659;SDS011;26753;45.544;9.232;2023-12-20T07:27:45;40.30;;;22.90;;
40659;SDS011;26753;45.544;9.232;2023-12-20T07:30:11;38.38;;;22.38;;
40659;SDS011;26753;45.544;9.232;2023-12-20T07:32:38;37.95;;;21.73;;
40659;SDS011;26753;45.544;9.232;2023-12-20T07:35:04;38.90;;;22.65;;
40659;SDS011;26753;45.544;9.232;2023-12-20T07:37:30;39.72;;;22.50;;
40659;SDS011;26753;45.544;9.232;2023-12-20T07:39:56;43.47;;;23.00;;
40659;SDS011;26753;45.544;9.232;2023-12-20T07:42:22;41.95;;;23.00;;
40659;SDS011;26753;45.544;9.232;2023-12-20T07:44:51;45.28;;;24.75;;
40659;SDS011;26753;45.544;9.232;2023-12-20T07:47:17;43.97;;;22.50;;
40659;SDS011;26753;45.544;9.232;2023-12-20T07:49:46;46.72;;;24.30;;
40659;SDS011;26753;45.544;9.232;2023-12-20T07:52:16;54.97;;;25.42;;
40659;SDS011;26753;45.544;9.232;2023-12-20T07:54:47;46.33;;;25.90;;
40659;SDS011;26753;45.544;9.232;2023-12-20T07:57:13;55.20;;;26.65;;
40659;SDS011;26753;45.544;9.232;2023-12-20T07:59:39;61.53;;;25.42;;
40659;SDS011;26753;45.544;9.232;2023-12-20T08:02:04;52.22;;;25.48;;
40659;SDS011;26753;45.544;9.232;2023-12-20T08:04:31;55.08;;;25.80;;
40659;SDS011;26753;45.544;9.232;2023-12-20T08:06:57;59.10;;;25.77;;
40659;SDS011;26753;45.544;9.232;2023-12-20T08:09:25;54.40;;;26.02;;
40659;SDS011;26753;45.544;9.232;2023-12-20T08:11:51;49.22;;;25.65;;
40659;SDS011;26753;45.544;9.232;2023-12-20T08:14:17;52.63;;;25.10;;
40659;SDS011;26753;45.544;9.232;2023-12-20T08:16:43;53.47;;;25.45;;
40659;SDS011;26753;45.544;9.232;2023-12-20T08:19:09;56.30;;;24.30;;
40659;SDS011;26753;45.544;9.232;2023-12-20T08:21:38;47.83;;;24.55;;
40659;SDS011;26753;45.544;9.232;2023-12-20T08:24:04;48.97;;;25.27;;
40659;SDS011;26753;45.544;9.232;2023-12-20T08:26:31;49.97;;;24.65;;
40659;SDS011;26753;45.544;9.232;2023-12-20T08:29:00;46.72;;;25.80;;
40659;SDS011;26753;45.544;9.232;2023-12-20T08:31:26;47.70;;;25.40;;
40659;SDS011;26753;45.544;9.232;2023-12-20T08:33:52;48.92;;;25.85;;
40659;SDS011;26753;45.544;9.232;2023-12-20T08:36:21;49.92;;;26.67;;
40659;SDS011;26753;45.544;9.232;2023-12-20T08:38:48;51.75;;;26.67;;
40659;SDS011;26753;45.544;9.232;2023-12-20T08:41:17;45.17;;;25.70;;
40659;SDS011;26753;45.544;9.232;2023-12-20T08:43:43;46.75;;;25.65;;
40659;SDS011;26753;45.544;9.232;2023-12-20T08:46:08;49.70;;;25.38;;
40659;SDS011;26753;45.544;9.232;2023-12-20T08:48:35;54.53;;;26.10;;
40659;SDS011;26753;45.544;9.232;2023-12-20T08:51:01;49.00;;;25.73;;
40659;SDS011;26753;45.544;9.232;2023-12-20T08:53:27;48.10;;;25.63;;
40659;SDS011;26753;45.544;9.232;2023-12-20T08:55:58;50.53;;;25.48;;
40659;SDS011;26753;45.544;9.232;2023-12-20T08:58:27;48.53;;;25.67;;
40659;SDS011;26753;45.544;9.232;2023-12-20T09:00:53;52.25;;;25.48;;
40659;SDS011;26753;45.544;9.232;2023-12-20T09:03:19;50.30;;;25.48;;
40659;SDS011;26753;45.544;9.232;2023-12-20T09:05:48;54.97;;;25.80;;
40659;SDS011;26753;45.544;9.232;2023-12-20T09:08:14;54.50;;;25.17;;
40659;SDS011;26753;45.544;9.232;2023-12-20T09:10:39;49.35;;;24.90;;
40659;SDS011;26753;45.544;9.232;2023-12-20T09:13:05;51.80;;;24.88;;
40659;SDS011;26753;45.544;9.232;2023-12-20T09:15:30;61.78;;;25.58;;
40659;SDS011;26753;45.544;9.232;2023-12-20T09:17:59;54.35;;;26.60;;
40659;SDS011;26753;45.544;9.232;2023-12-20T09:20:25;53.85;;;26.25;;
40659;SDS011;26753;45.544;9.232;2023-12-20T09:22:50;48.88;;;26.08;;
40659;SDS011;26753;45.544;9.232;2023-12-20T09:25:16;48.67;;;26.25;;
40659;SDS011;26753;45.544;9.232;2023-12-20T09:27:42;46.70;;;25.98;;
40659;SDS011;26753;45.544;9.232;2023-12-20T09:30:08;49.97;;;25.85;;
40659;SDS011;26753;45.544;9.232;2023-12-20T09:32:34;56.53;;;27.25;;
40659;SDS011;26753;45.544;9.232;2023-12-20T09:35:01;58.00;;;26.55;;
40659;SDS011;26753;45.544;9.232;2023-12-20T09:37:27;52.72;;;26.02;;
40659;SDS011;26753;45.544;9.232;2023-12-20T09:39:53;53.10;;;26.40;;
40659;SDS011;26753;45.544;9.232;2023-12-20T09:42:40;51.97;;;26.55;;
40659;SDS011;26753;45.544;9.232;2023-12-20T09:45:22;54.60;;;26.70;;
40659;SDS011;26753;45.544;9.232;2023-12-20T09:47:52;53.83;;;26.48;;
40659;SDS011;26753;45.544;9.232;2023-12-20T09:50:21;54.60;;;27.05;;
40659;SDS011;26753;45.544;9.232;2023-12-20T09:52:51;47.25;;;26.55;;
40659;SDS011;26753;45.544;9.232;2023-12-20T09:55:27;49.75;;;26.55;;
40659;SDS011;26753;45.544;9.232;2023-12-20T09:57:55;56.58;;;26.98;;
40659;SDS011;26753;45.544;9.232;2023-12-20T10:00:21;52.83;;;27.45;;
40659;SDS011;26753;45.544;9.232;2023-12-20T10:02:53;50.50;;;27.20;;
40659;SDS011;26753;45.544;9.232;2023-12-20T10:05:28;54.97;;;29.00;;
40659;SDS011;26753;45.544;9.232;2023-12-20T10:07:54;55.65;;;28.23;;
40659;SDS011;26753;45.544;9.232;2023-12-20T10:10:22;50.70;;;28.00;;
40659;SDS011;26753;45.544;9.232;2023-12-20T10:13:07;53.70;;;28.10;;
40659;SDS011;26753;45.544;9.232;2023-12-20T10:15:37;64.75;;;28.85;;
40659;SDS011;26753;45.544;9.232;2023-12-20T10:18:03;57.67;;;28.27;;
40659;SDS011;26753;45.544;9.232;2023-12-20T10:20:33;51.22;;;28.02;;
40659;SDS011;26753;45.544;9.232;2023-12-20T10:22:59;52.05;;;28.95;;
40659;SDS011;26753;45.544;9.232;2023-12-20T10:25:26;57.10;;;30.55;;
40659;SDS011;26753;45.544;9.232;2023-12-20T10:28:11;48.97;;;29.85;;
40659;SDS011;26753;45.544;9.232;2023-12-20T10:30:39;57.65;;;29.95;;
40659;SDS011;26753;45.544;9.232;2023-12-20T10:33:06;51.58;;;29.50;;
40659;SDS011;26753;45.544;9.232;2023-12-20T10:35:40;57.42;;;30.55;;
40659;SDS011;26753;45.544;9.232;2023-12-20T10:38:10;59.15;;;30.77;;
40659;SDS011;26753;45.544;9.232;2023-12-20T10:40:36;50.88;;;30.40;;
40659;SDS011;26753;45.544;9.232;2023-12-20T10:43:03;54.20;;;30.33;;
40659;SDS011;26753;45.544;9.232;2023-12-20T10:45:30;55.85;;;32.33;;
40659;SDS011;26753;45.544;9.232;2023-12-20T10:48:05;65.75;;;32.15;;
40659;SDS011;26753;45.544;9.232;2023-12-20T10:50:32;57.85;;;32.08;;
40659;SDS011;26753;45.544;9.232;2023-12-20T10:53:04;56.15;;;32.78;;
40659;SDS011;26753;45.544;9.232;2023-12-20T10:55:30;58.10;;;33.80;;
40659;SDS011;26753;45.544;9.232;2023-12-20T10:58:04;62.67;;;34.50;;
40659;SDS011;26753;45.544;9.232;2023-12-20T11:00:37;61.60;;;35.17;;
40659;SDS011;26753;45.544;9.232;2023-12-20T11:03:06;59.05;;;35.53;;
40659;SDS011;26753;45.544;9.232;2023-12-20T11:11:38;56.53;;;33.25;;
40659;SDS011;26753;45.544;9.232;2023-12-20T11:14:47;52.45;;;32.75;;
40659;SDS011;26753;45.544;9.232;2023-12-20T11:17:13;52.58;;;31.77;;
40659;SDS011;26753;45.544;9.232;2023-12-20T11:22:21;58.03;;;33.72;;
40659;SDS011;26753;45.544;9.232;2023-12-20T11:24:51;57.75;;;35.65;;
40659;SDS011;26753;45.544;9.232;2023-12-20T11:27:20;58.20;;;34.92;;
40659;SDS011;26753;45.544;9.232;2023-12-20T11:29:53;60.92;;;38.17;;
40659;SDS011;26753;45.544;9.232;2023-12-20T11:34:54;60.15;;;35.70;;
40659;SDS011;26753;45.544;9.232;2023-12-20T11:38:07;69.03;;;36.53;;
40659;SDS011;26753;45.544;9.232;2023-12-20T11:40:37;54.55;;;35.25;;
40659;SDS011;26753;45.544;9.232;2023-12-20T11:43:03;56.58;;;34.85;;
40659;SDS011;26753;45.544;9.232;2023-12-20T11:45:32;56.55;;;36.08;;
40659;SDS011;26753;45.544;9.232;2023-12-20T11:48:00;53.85;;;35.83;;
40659;SDS011;26753;45.544;9.232;2023-12-20T11:50:33;56.85;;;32.85;;
40659;SDS011;26753;45.544;9.232;2023-12-20T11:52:59;58.08;;;33.40;;
40659;SDS011;26753;45.544;9.232;2023-12-20T11:55:27;49.30;;;32.75;;
40659;SDS011;26753;45.544;9.232;2023-12-20T11:57:56;49.50;;;30.77;;
40659;SDS011;26753;45.544;9.232;2023-12-20T12:00:25;46.35;;;30.45;;
40659;SDS011;26753;45.544;9.232;2023-12-20T12:03:00;49.95;;;30.83;;
40659;SDS011;26753;45.544;9.232;2023-12-20T12:05:28;46.00;;;30.02;;
40659;SDS011;26753;45.544;9.232;2023-12-20T12:07:55;44.65;;;30.08;;
40659;SDS011;26753;45.544;9.232;2023-12-20T12:10:21;39.20;;;26.40;;
40659;SDS011;26753;45.544;9.232;2023-12-20T12:12:47;47.42;;;27.67;;
40659;SDS011;26753;45.544;9.232;2023-12-20T12:15:14;40.97;;;27.27;;
40659;SDS011;26753;45.544;9.232;2023-12-20T12:17:43;49.85;;;27.40;;
40659;SDS011;26753;45.544;9.232;2023-12-20T12:20:09;43.78;;;27.88;;
40659;SDS011;26753;45.544;9.232;2023-12-20T12:22:38;53.95;;;30.45;;
40659;SDS011;26753;45.544;9.232;2023-12-20T12:25:11;58.75;;;35.38;;
40659;SDS011;26753;45.544;9.232;2023-12-20T12:27:41;55.67;;;33.45;;
40659;SDS011;26753;45.544;9.232;2023-12-20T12:30:08;56.67;;;34.80;;
40659;SDS011;26753;45.544;9.232;2023-12-20T12:32:35;51.30;;;32.67;;
40659;SDS011;26753;45.544;9.232;2023-12-20T12:35:04;59.90;;;35.03;;
40659;SDS011;26753;45.544;9.232;2023-12-20T12:37:37;51.67;;;33.95;;
40659;SDS011;26753;45.544;9.232;2023-12-20T12:40:09;55.35;;;33.10;;
40659;SDS011;26753;45.544;9.232;2023-12-20T12:42:36;52.53;;;32.10;;
40659;SDS011;26753;45.544;9.232;2023-12-20T12:45:02;49.72;;;32.72;;
40659;SDS011;26753;45.544;9.232;2023-12-20T12:47:29;46.38;;;31.88;;
40659;SDS011;26753;45.544;9.232;2023-12-20T12:49:55;47.40;;;31.98;;
40659;SDS011;26753;45.544;9.232;2023-12-20T12:52:21;45.67;;;30.50;;
40659;SDS011;26753;45.544;9.232;2023-12-20T12:54:47;50.50;;;31.13;;
40659;SDS011;26753;45.544;9.232;2023-12-20T12:57:14;43.65;;;29.75;;
40659;SDS011;26753;45.544;9.232;2023-12-20T12:59:41;44.88;;;30.52;;
40659;SDS011;26753;45.544;9.232;2023-12-20T13:02:07;47.90;;;31.60;;
40659;SDS011;26753;45.544;9.232;2023-12-20T13:04:48;42.22;;;31.00;;
40659;SDS011;26753;45.544;9.232;2023-12-20T13:07:13;43.78;;;30.98;;
40659;SDS011;26753;45.544;9.232;2023-12-20T13:09:40;43.10;;;29.20;;
40659;SDS011;26753;45.544;9.232;2023-12-20T13:12:06;45.38;;;29.48;;
40659;SDS011;26753;45.544;9.232;2023-12-20T13:14:32;43.17;;;29.05;;
40659;SDS011;26753;45.544;9.232;2023-12-20T13:17:00;36.47;;;27.80;;
40659;SDS011;26753;45.544;9.232;2023-12-20T13:19:28;40.92;;;27.50;;
40659;SDS011;26753;45.544;9.232;2023-12-20T13:21:55;40.67;;;28.52;;
40659;SDS011;26753;45.544;9.232;2023-12-20T13:24:21;38.75;;;27.42;;
40659;SDS011;26753;45.544;9.232;2023-12-20T13:26:54;39.08;;;28.05;;
40659;SDS011;26753;45.544;9.232;2023-12-20T13:29:20;36.38;;;27.63;;
40659;SDS011;26753;45.544;9.232;2023-12-20T13:31:46;44.22;;;28.02;;
40659;SDS011;26753;45.544;9.232;2023-12-20T13:34:12;34.38;;;26.42;;
40659;SDS011;26753;45.544;9.232;2023-12-20T13:36:42;35.53;;;27.17;;
40659;SDS011;26753;45.544;9.232;2023-12-20T13:39:11;33.55;;;25.27;;
40659;SDS011;26753;45.544;9.232;2023-12-20T13:41:37;37.97;;;26.98;;
40659;SDS011;26753;45.544;9.232;2023-12-20T13:44:03;38.97;;;25.95;;
40659;SDS011;26753;45.544;9.232;2023-12-20T13:46:29;37.45;;;25.23;;
40659;SDS011;26753;45.544;9.232;2023-12-20T13:48:55;39.35;;;25.05;;
40659;SDS011;26753;45.544;9.232;2023-12-20T13:51:20;40.75;;;24.80;;
40659;SDS011;26753;45.544;9.232;2023-12-20T13:53:46;39.78;;;24.85;;
40659;SDS011;26753;45.544;9.232;2023-12-20T13:56:13;34.55;;;24.80;;
40659;SDS011;26753;45.544;9.232;2023-12-20T13:58:46;36.15;;;25.55;;
40659;SDS011;26753;45.544;9.232;2023-12-20T14:01:12;37.53;;;25.17;;
40659;SDS011;26753;45.544;9.232;2023-12-20T14:03:40;41.55;;;25.05;;
40659;SDS011;26753;45.544;9.232;2023-12-20T14:06:08;36.80;;;26.00;;
40659;SDS011;26753;45.544;9.232;2023-12-20T14:08:34;31.70;;;25.85;;
40659;SDS011;26753;45.544;9.232;2023-12-20T14:11:01;36.45;;;26.33;;
40659;SDS011;26753;45.544;9.232;2023-12-20T14:13:27;34.70;;;26.70;;
40659;SDS011;26753;45.544;9.232;2023-12-20T14:15:53;37.00;;;26.27;;
40659;SDS011;26753;45.544;9.232;2023-12-20T14:18:19;39.47;;;25.85;;
40659;SDS011;26753;45.544;9.232;2023-12-20T14:20:45;35.15;;;25.13;;
40659;SDS011;26753;45.544;9.232;2023-12-20T14:23:13;36.92;;;26.17;;
40659;SDS011;26753;45.544;9.232;2023-12-20T14:25:41;43.83;;;26.20;;
40659;SDS011;26753;45.544;9.232;2023-12-20T14:28:07;35.75;;;25.88;;
40659;SDS011;26753;45.544;9.232;2023-12-20T14:30:35;37.17;;;25.20;;
40659;SDS011;26753;45.544;9.232;2023-12-20T14:33:02;36.10;;;25.95;;
40659;SDS011;26753;45.544;9.232;2023-12-20T14:35:27;39.42;;;25.98;;
40659;SDS011;26753;45.544;9.232;2023-12-20T14:37:53;37.17;;;25.13;;